createdAt,value
2022-10-08T00:01:10.234Z,101316.09
2022-10-08T00:03:39.741Z,101315.06
2022-10-08T00:06:16.388Z,101294.03
2022-10-08T00:08:49.411Z,101303.41
2022-10-08T00:11:20.079Z,101298.03
2022-10-08T00:13:48.620Z,101312.88
2022-10-08T00:16:37.829Z,101308.66
2022-10-08T00:19:14.070Z,101311.66
2022-10-08T00:21:43.893Z,101314.91
2022-10-08T00:24:16.829Z,101307.66
2022-10-08T00:26:44.625Z,101300.47
2022-10-08T00:29:14.332Z,101305.03
2022-10-08T00:31:44.510Z,101297.38
2022-10-08T00:34:15.977Z,101304.84
2022-10-08T00:36:42.829Z,101298.88
2022-10-08T00:39:15.878Z,101294.69
2022-10-08T00:41:45.314Z,101291.00
2022-10-08T00:44:50.848Z,101300.59
2022-10-08T00:47:32.933Z,101297.53
2022-10-08T00:50:01.940Z,101294.31
2022-10-08T00:52:35.395Z,101286.38
2022-10-08T00:55:06.785Z,101288.59
2022-10-08T00:57:35.987Z,101282.28
2022-10-08T01:00:12.678Z,101276.97
2022-10-08T01:02:39.622Z,101279.03
2022-10-08T01:05:07.677Z,101277.22
2022-10-08T01:07:45.055Z,101285.91
2022-10-08T01:10:17.822Z,101279.41
2022-10-08T01:12:47.962Z,101285.84
2022-10-08T01:15:51.135Z,101287.19
2022-10-08T01:18:27.954Z,101283.56
2022-10-08T01:21:15.824Z,101291.06
2022-10-08T01:23:59.531Z,101291.50
2022-10-08T01:26:48.191Z,101299.34
2022-10-08T01:29:16.582Z,101294.31
2022-10-08T01:31:51.786Z,101300.78
2022-10-08T01:34:31.975Z,101290.53
2022-10-08T01:37:01.262Z,101288.06
2022-10-08T01:39:33.005Z,101284.56
2022-10-08T01:42:03.160Z,101281.06
2022-10-08T01:44:36.043Z,101290.53
2022-10-08T01:47:07.710Z,101290.53
2022-10-08T01:49:43.369Z,101284.56
2022-10-08T01:52:20.420Z,101292.03
2022-10-08T01:54:49.534Z,101285.84
2022-10-08T01:57:16.730Z,101288.00
2022-10-08T01:59:54.868Z,101290.56
2022-10-08T02:02:24.795Z,101288.28
2022-10-08T02:04:54.460Z,101298.66
2022-10-08T02:07:43.004Z,101305.94
2022-10-08T02:10:14.078Z,101296.22
2022-10-08T02:12:42.168Z,101308.47
2022-10-08T02:15:33.866Z,101293.25
2022-10-08T02:18:15.988Z,101304.69
2022-10-08T02:20:52.094Z,101303.78
2022-10-08T02:23:37.746Z,101303.94
2022-10-08T02:26:08.607Z,101299.31
2022-10-08T02:28:49.494Z,101321.16
2022-10-08T02:31:40.854Z,101304.69
2022-10-08T02:34:15.010Z,101308.66
2022-10-08T02:36:45.690Z,101304.84
2022-10-08T02:39:15.719Z,101301.44
2022-10-08T02:41:52.339Z,101313.75
2022-10-08T02:44:26.572Z,101301.69
2022-10-08T02:46:57.926Z,101305.97
2022-10-08T02:49:33.737Z,101315.97
2022-10-08T02:52:02.797Z,101314.19
2022-10-08T02:54:35.271Z,101313.50
2022-10-08T02:57:11.616Z,101312.28
2022-10-08T02:59:38.539Z,101313.72
2022-10-08T03:02:06.294Z,101324.19
2022-10-08T03:04:45.853Z,101319.34
2022-10-08T03:07:15.127Z,101317.34
2022-10-08T03:09:45.752Z,101321.91
2022-10-08T03:12:12.895Z,101314.00
2022-10-08T03:14:43.709Z,101316.84
2022-10-08T03:17:14.276Z,101324.47
2022-10-08T03:19:41.160Z,101327.22
2022-10-08T03:22:08.271Z,101327.59
2022-10-08T03:24:36.146Z,101335.94
2022-10-08T03:27:03.931Z,101331.38
2022-10-08T03:29:30.889Z,101340.00
2022-10-08T03:31:57.694Z,101341.59
2022-10-08T03:34:25.551Z,101347.97
2022-10-08T03:36:52.376Z,101347.69
2022-10-08T03:39:19.333Z,101348.59
2022-10-08T03:41:46.146Z,101346.47
2022-10-08T03:44:12.935Z,101341.53
2022-10-08T03:46:40.626Z,101345.72
2022-10-08T03:49:07.461Z,101351.63
2022-10-08T03:51:34.266Z,101349.44
2022-10-08T03:54:01.068Z,101348.16
2022-10-08T03:56:27.886Z,101342.53
2022-10-08T03:58:56.978Z,101345.47
2022-10-08T04:01:25.393Z,101360.78
2022-10-08T04:03:52.790Z,101344.84
2022-10-08T04:06:20.432Z,101354.06
2022-10-08T04:08:47.280Z,101351.22
2022-10-08T04:11:16.263Z,101359.59
2022-10-08T04:13:43.921Z,101354.75
2022-10-08T04:16:14.132Z,101358.97
2022-10-08T04:18:41.934Z,101355.03
2022-10-08T04:21:12.074Z,101358.50
2022-10-08T04:23:40.810Z,101362.75
2022-10-08T04:26:09.106Z,101359.53
2022-10-08T04:28:38.837Z,101369.44
2022-10-08T04:31:12.603Z,101368.75
2022-10-08T04:33:39.524Z,101368.81
2022-10-08T04:36:14.854Z,101370.69
2022-10-08T04:38:45.587Z,101373.47
2022-10-08T04:41:15.334Z,101373.47
2022-10-08T04:43:43.957Z,101370.41
2022-10-08T04:46:13.238Z,101370.94
2022-10-08T04:48:40.603Z,101361.66
2022-10-08T04:51:10.743Z,101369.13
2022-10-08T04:53:38.208Z,101371.97
2022-10-08T04:56:20.766Z,101377.66
2022-10-08T04:58:48.073Z,101366.63
2022-10-08T05:01:17.722Z,101374.31
2022-10-08T05:03:48.373Z,101374.38
2022-10-08T05:06:20.845Z,101383.53
2022-10-08T05:08:48.553Z,101385.88
2022-10-08T05:11:16.348Z,101384.53
2022-10-08T05:13:43.927Z,101389.97
2022-10-08T05:16:13.858Z,101393.25
2022-10-08T05:18:42.310Z,101397.84
2022-10-08T05:21:12.275Z,101398.38
2022-10-08T05:23:40.210Z,101399.69
2022-10-08T05:26:19.397Z,101410.41
2022-10-08T05:28:47.681Z,101416.22
2022-10-08T05:31:18.041Z,101426.84
2022-10-08T05:33:45.220Z,101423.88
2022-10-08T05:36:18.337Z,101420.94
2022-10-08T05:38:45.296Z,101423.19
2022-10-08T05:41:17.183Z,101431.47
2022-10-08T05:43:45.242Z,101429.69
2022-10-08T05:46:12.692Z,101430.56
2022-10-08T05:48:39.967Z,101433.53
2022-10-08T05:51:09.124Z,101433.09
2022-10-08T05:53:38.318Z,101438.81
2022-10-08T05:56:07.584Z,101439.63
2022-10-08T05:58:36.314Z,101450.88
2022-10-08T06:01:06.561Z,101445.22
2022-10-08T06:03:33.541Z,101450.09
2022-10-08T06:06:06.425Z,101447.69
2022-10-08T06:08:33.919Z,101448.16
2022-10-08T06:11:01.135Z,101450.88
2022-10-08T06:13:28.235Z,101455.16
2022-10-08T06:16:06.817Z,101455.56
2022-10-08T06:18:36.478Z,101456.72
2022-10-08T06:21:24.438Z,101467.59
2022-10-08T06:23:57.760Z,101469.09
2022-10-08T06:26:30.557Z,101480.25
2022-10-08T06:29:01.511Z,101481.34
2022-10-08T06:31:28.540Z,101483.13
2022-10-08T06:33:57.040Z,101489.59
2022-10-08T06:36:28.531Z,101500.97
2022-10-08T06:39:00.568Z,101495.69
2022-10-08T06:41:30.335Z,101498.38
2022-10-08T06:43:57.237Z,101504.03
2022-10-08T06:46:24.128Z,101498.16
2022-10-08T06:48:50.953Z,101507.91
2022-10-08T06:51:19.027Z,101513.91
2022-10-08T06:53:52.594Z,101519.78
2022-10-08T06:56:19.442Z,101533.72
2022-10-08T06:58:47.565Z,101536.28
2022-10-08T07:01:20.083Z,101533.81
2022-10-08T07:04:06.844Z,101535.41
2022-10-08T07:06:33.861Z,101542.00
2022-10-08T07:09:01.982Z,101540.31
2022-10-08T07:11:31.331Z,101551.75
2022-10-08T07:13:58.417Z,101557.09
2022-10-08T07:16:27.036Z,101566.72
2022-10-08T07:18:56.452Z,101569.88
2022-10-08T07:21:23.352Z,101567.31
2022-10-08T07:23:50.859Z,101579.25
2022-10-08T07:26:21.029Z,101579.94
2022-10-08T07:28:56.907Z,101587.41
2022-10-08T07:31:28.080Z,101594.63
2022-10-08T07:33:56.221Z,101601.97
2022-10-08T07:36:25.088Z,101600.47
2022-10-08T07:39:04.942Z,101614.28
2022-10-08T07:41:32.820Z,101618.63
2022-10-08T07:44:04.289Z,101631.28
2022-10-08T07:46:36.835Z,101625.59
2022-10-08T07:49:04.861Z,101633.28
2022-10-08T07:51:33.764Z,101628.16
2022-10-08T07:54:02.935Z,101620.06
2022-10-08T07:56:31.248Z,101629.41
2022-10-08T07:58:59.041Z,101632.41
2022-10-08T08:01:30.494Z,101635.09
2022-10-08T08:04:06.263Z,101638.44
2022-10-08T08:06:37.692Z,101642.81
2022-10-08T08:09:04.463Z,101658.13
2022-10-08T08:11:31.530Z,101649.69
2022-10-08T08:13:58.430Z,101680.34
2022-10-08T08:16:27.423Z,101675.88
2022-10-08T08:18:56.562Z,101681.06
2022-10-08T08:21:29.027Z,101679.97
2022-10-08T08:23:57.759Z,101692.81
2022-10-08T08:26:28.815Z,101690.28
2022-10-08T08:28:58.841Z,101680.34
2022-10-08T08:31:30.828Z,101689.06
2022-10-08T08:34:01.755Z,101696.97
2022-10-08T08:36:31.671Z,101691.13
2022-10-08T08:38:59.325Z,101699.59
2022-10-08T08:41:36.043Z,101699.22
2022-10-08T08:44:10.577Z,101702.22
2022-10-08T08:46:42.518Z,101701.50
2022-10-08T08:49:23.197Z,101704.38
2022-10-08T08:51:50.081Z,101708.03
2022-10-08T08:54:16.981Z,101706.31
2022-10-08T08:56:44.200Z,101715.25
2022-10-08T08:59:34.318Z,101708.41
2022-10-08T09:02:06.033Z,101709.72
2022-10-08T09:04:45.093Z,101723.75
2022-10-08T09:07:17.243Z,101725.88
2022-10-08T09:09:48.613Z,101717.50
2022-10-08T09:12:21.045Z,101724.50
2022-10-08T09:14:53.101Z,101731.34
2022-10-08T09:17:27.929Z,101736.03
2022-10-08T09:19:54.821Z,101738.28
2022-10-08T09:22:31.565Z,101743.22
2022-10-08T09:25:06.576Z,101742.00
2022-10-08T09:27:43.529Z,101738.22
2022-10-08T09:30:29.357Z,101733.38
2022-10-08T09:33:16.519Z,101733.00
2022-10-08T09:35:49.334Z,101736.56
2022-10-08T09:38:26.337Z,101733.88
2022-10-08T09:41:07.041Z,101741.91
2022-10-08T09:43:35.478Z,101765.28
2022-10-08T09:46:12.066Z,101771.53
2022-10-08T09:48:39.749Z,101767.97
2022-10-08T09:51:15.412Z,101780.25
2022-10-08T09:53:42.285Z,101778.34
2022-10-08T09:56:10.917Z,101777.50
2022-10-08T09:58:53.943Z,101786.09
2022-10-08T10:01:21.500Z,101792.38
2022-10-08T10:03:55.688Z,101793.16
2022-10-08T10:06:46.130Z,101796.81
2022-10-08T10:09:41.091Z,101800.63
2022-10-08T10:12:10.792Z,101801.97
2022-10-08T10:14:45.286Z,101797.88
2022-10-08T10:17:34.597Z,101801.78
2022-10-08T10:20:43.922Z,101806.94
2022-10-08T10:23:39.372Z,101805.09
2022-10-08T10:26:15.550Z,101818.28
2022-10-08T10:28:54.444Z,101817.91
2022-10-08T10:31:45.391Z,101812.81
2022-10-08T10:34:25.139Z,101824.91
2022-10-08T10:36:59.095Z,101818.63
2022-10-08T10:39:44.634Z,101820.31
2022-10-08T10:42:20.713Z,101842.94
2022-10-08T10:44:56.450Z,101835.16
2022-10-08T10:47:31.005Z,101838.00
2022-10-08T10:50:01.367Z,101836.50
2022-10-08T10:53:06.838Z,101844.09
2022-10-08T10:55:41.195Z,101844.81
2022-10-08T10:58:21.961Z,101857.03
2022-10-08T11:01:04.472Z,101856.44
2022-10-08T11:03:57.441Z,101859.97
2022-10-08T11:06:45.942Z,101862.34
2022-10-08T11:09:12.818Z,101867.38
2022-10-08T11:11:52.313Z,101868.19
2022-10-08T11:14:44.606Z,101881.47
2022-10-08T11:17:37.228Z,101884.81
2022-10-08T11:20:22.439Z,101881.31
2022-10-08T11:23:20.504Z,101879.03
2022-10-08T11:26:22.402Z,101890.69
2022-10-08T11:28:59.896Z,101891.22
2022-10-08T11:31:47.127Z,101896.97
2022-10-08T11:34:20.092Z,101897.94
2022-10-08T11:36:53.023Z,101887.84
2022-10-08T11:39:21.097Z,101895.00
2022-10-08T11:41:55.253Z,101890.69
2022-10-08T11:44:22.508Z,101899.53
2022-10-08T11:46:49.492Z,101899.28
2022-10-08T11:49:16.278Z,101891.53
2022-10-08T11:51:45.739Z,101887.63
2022-10-08T11:54:38.602Z,101900.41
2022-10-08T11:57:16.434Z,101898.53
2022-10-08T11:59:45.282Z,101902.88
2022-10-08T12:02:33.726Z,101910.59
2022-10-08T12:05:18.879Z,101906.81
2022-10-08T12:07:57.554Z,101912.97
2022-10-08T12:10:29.532Z,101911.06
2022-10-08T12:12:59.892Z,101911.22
2022-10-08T12:15:27.834Z,101909.03
2022-10-08T12:17:56.101Z,101908.09
2022-10-08T12:20:32.834Z,101910.16
2022-10-08T12:23:10.985Z,101916.75
2022-10-08T12:25:49.016Z,101900.56
2022-10-08T12:28:21.943Z,101909.41
2022-10-08T12:30:54.486Z,101906.91
2022-10-08T12:33:22.502Z,101901.38
2022-10-08T12:36:01.282Z,101898.31
2022-10-08T12:38:51.241Z,101911.81
2022-10-08T12:41:28.604Z,101907.00
2022-10-08T12:44:08.524Z,101908.13
2022-10-08T12:46:50.892Z,101909.13
2022-10-08T12:49:58.321Z,101910.69
2022-10-08T12:52:26.091Z,101921.25
2022-10-08T12:54:56.380Z,101927.41
2022-10-08T12:57:38.153Z,101922.59
2022-10-08T13:00:11.391Z,101927.50
2022-10-08T13:02:41.828Z,101923.22
2022-10-08T13:05:32.050Z,101927.03
2022-10-08T13:08:17.083Z,101925.44
2022-10-08T13:10:44.026Z,101926.00
2022-10-08T13:13:50.346Z,101936.81
2022-10-08T13:16:23.047Z,101932.09
2022-10-08T13:18:52.904Z,101938.69
2022-10-08T13:21:24.535Z,101938.59
2022-10-08T13:23:52.148Z,101935.44
2022-10-08T13:26:52.189Z,101940.69
2022-10-08T13:29:36.142Z,101935.59
2022-10-08T13:32:15.702Z,101945.25
2022-10-08T13:34:46.432Z,101956.03
2022-10-08T13:37:21.257Z,101953.00
2022-10-08T13:39:54.250Z,101951.81
2022-10-08T13:42:24.798Z,101962.88
2022-10-08T13:44:52.125Z,101969.44
2022-10-08T13:47:21.841Z,101972.25
2022-10-08T13:49:49.207Z,101981.22
2022-10-08T13:52:21.576Z,101993.41
2022-10-08T13:54:51.549Z,102001.97
2022-10-08T13:57:18.398Z,102003.13
2022-10-08T13:59:45.374Z,102006.75
2022-10-08T14:02:14.350Z,102004.63
2022-10-08T14:04:41.361Z,102001.44
2022-10-08T14:07:27.306Z,101998.84
2022-10-08T14:09:57.628Z,102008.63
2022-10-08T14:12:27.017Z,102009.13
2022-10-08T14:14:53.938Z,102006.13
2022-10-08T14:17:21.152Z,102011.63
2022-10-08T14:19:48.997Z,102015.28
2022-10-08T14:22:16.697Z,102011.66
2022-10-08T14:24:44.058Z,102011.97
2022-10-08T14:27:10.866Z,102014.00
2022-10-08T14:29:37.934Z,102015.00
2022-10-08T14:32:05.755Z,102019.03
2022-10-08T14:34:32.579Z,102027.28
2022-10-08T14:36:59.672Z,102020.72
2022-10-08T14:39:26.869Z,102023.88
2022-10-08T14:41:54.181Z,102019.84
2022-10-08T14:44:22.642Z,102026.75
2022-10-08T14:46:52.837Z,102021.91
2022-10-08T14:49:20.747Z,102021.47
2022-10-08T14:51:48.484Z,102026.94
2022-10-08T14:54:15.738Z,102021.16
2022-10-08T14:56:43.153Z,102035.28
2022-10-08T14:59:11.309Z,102025.59
2022-10-08T15:01:38.830Z,102037.09
2022-10-08T15:04:06.595Z,102035.41
2022-10-08T15:06:34.164Z,102040.97
2022-10-08T15:09:01.086Z,102040.88
2022-10-08T15:11:27.987Z,102041.25
2022-10-08T15:13:55.605Z,102038.22
2022-10-08T15:16:22.876Z,102054.16
2022-10-08T15:18:49.938Z,102043.81
2022-10-08T15:21:16.778Z,102053.47
2022-10-08T15:23:43.613Z,102055.69
2022-10-08T15:26:16.716Z,102050.84
2022-10-08T15:28:46.116Z,102053.47
2022-10-08T15:31:18.385Z,102062.47
2022-10-08T15:33:48.055Z,102073.34
2022-10-08T15:36:18.939Z,102074.25
2022-10-08T15:38:47.086Z,102079.28
2022-10-08T15:41:19.764Z,102073.47
2022-10-08T15:43:46.915Z,102076.88
2022-10-08T15:46:18.150Z,102073.66
2022-10-08T15:48:56.519Z,102083.88
2022-10-08T15:51:24.759Z,102088.59
2022-10-08T15:53:51.643Z,102085.84
2022-10-08T15:56:18.457Z,102098.13
2022-10-08T15:58:50.736Z,102090.63
2022-10-08T16:01:21.085Z,102102.03
2022-10-08T16:03:50.334Z,102096.78
2022-10-08T16:06:20.124Z,102105.84
2022-10-08T16:08:47.320Z,102105.63
2022-10-08T16:11:19.982Z,102106.31
2022-10-08T16:13:50.055Z,102118.94
2022-10-08T16:16:17.975Z,102117.34
2022-10-08T16:18:47.040Z,102117.25
2022-10-08T16:21:14.241Z,102130.97
2022-10-08T16:23:41.140Z,102133.56
2022-10-08T16:26:11.107Z,102124.81
2022-10-08T16:28:40.740Z,102136.50
2022-10-08T16:31:08.669Z,102127.41
2022-10-08T16:33:35.604Z,102138.63
2022-10-08T16:36:05.415Z,102134.97
2022-10-08T16:38:38.674Z,102136.63
2022-10-08T16:41:12.844Z,102142.13
2022-10-08T16:43:39.877Z,102146.53
2022-10-08T16:46:14.332Z,102141.94
2022-10-08T16:48:41.275Z,102153.31
2022-10-08T16:51:08.150Z,102151.75
2022-10-08T16:53:35.050Z,102158.13
2022-10-08T16:56:04.085Z,102161.53
2022-10-08T16:58:30.936Z,102166.50
2022-10-08T17:00:57.926Z,102174.53
2022-10-08T17:03:24.830Z,102167.09
2022-10-08T17:05:51.620Z,102172.75
2022-10-08T17:08:18.435Z,102169.72
2022-10-08T17:10:45.336Z,102175.91
2022-10-08T17:13:12.154Z,102176.72
2022-10-08T17:15:39.089Z,102180.16
2022-10-08T17:18:06.142Z,102181.00
2022-10-08T17:20:33.092Z,102193.31
2022-10-08T17:22:59.969Z,102185.31
2022-10-08T17:25:26.976Z,102191.34
2022-10-08T17:27:53.727Z,102185.53
2022-10-08T17:30:20.574Z,102202.66
2022-10-08T17:32:47.630Z,102200.28
2022-10-08T17:35:14.821Z,102205.03
2022-10-08T17:37:41.800Z,102205.84
2022-10-08T17:40:09.210Z,102205.53
2022-10-08T17:42:36.026Z,102211.44
2022-10-08T17:45:03.005Z,102217.38
2022-10-08T17:47:29.832Z,102220.84
2022-10-08T17:49:56.674Z,102223.16
2022-10-08T17:52:23.467Z,102228.19
2022-10-08T17:54:50.300Z,102227.88
2022-10-08T17:57:17.135Z,102229.13
2022-10-08T17:59:43.904Z,102231.81
2022-10-08T18:02:10.902Z,102231.44
2022-10-08T18:04:37.937Z,102237.91
2022-10-08T18:07:04.909Z,102235.09
2022-10-08T18:09:32.557Z,102239.59
2022-10-08T18:11:59.383Z,102237.91
2022-10-08T18:14:26.175Z,102243.38
2022-10-08T18:16:53.262Z,102243.06
2022-10-08T18:19:20.343Z,102244.16
2022-10-08T18:21:47.241Z,102246.56
2022-10-08T18:24:15.142Z,102246.63
2022-10-08T18:26:42.188Z,102246.94
2022-10-08T18:29:11.998Z,102251.97
2022-10-08T18:31:40.952Z,102257.09
2022-10-08T18:34:11.727Z,102263.16
2022-10-08T18:36:39.195Z,102266.97
2022-10-08T18:39:10.117Z,102265.31
2022-10-08T18:41:41.174Z,102269.16
2022-10-08T18:44:12.386Z,102277.13
2022-10-08T18:46:42.281Z,102270.88
2022-10-08T18:49:12.190Z,102278.53
2022-10-08T18:51:39.614Z,102283.06
2022-10-08T18:54:07.814Z,102279.25
2022-10-08T18:56:38.596Z,102278.94
2022-10-08T18:59:08.590Z,102278.00
2022-10-08T19:01:38.413Z,102276.13
2022-10-08T19:04:08.964Z,102283.44
2022-10-08T19:06:38.351Z,102291.22
2022-10-08T19:09:06.783Z,102293.25
2022-10-08T19:11:44.465Z,102303.75
2022-10-08T19:14:14.909Z,102300.47
2022-10-08T19:16:42.197Z,102303.53
2022-10-08T19:19:20.933Z,102304.19
2022-10-08T19:21:48.574Z,102314.94
2022-10-08T19:24:21.727Z,102313.78
2022-10-08T19:26:49.177Z,102313.22
2022-10-08T19:29:36.003Z,102314.91
2022-10-08T19:32:03.152Z,102319.38
2022-10-08T19:34:30.275Z,102317.50
2022-10-08T19:36:57.205Z,102322.47
2022-10-08T19:39:27.527Z,102327.19
2022-10-08T19:41:54.649Z,102327.59
2022-10-08T19:44:22.783Z,102327.19
2022-10-08T19:46:49.781Z,102331.16
2022-10-08T19:49:20.263Z,102328.88
2022-10-08T19:51:47.359Z,102324.97
2022-10-08T19:54:15.729Z,102331.47
2022-10-08T19:56:42.595Z,102335.88
2022-10-08T19:59:10.670Z,102337.66
2022-10-08T20:01:39.226Z,102337.34
2022-10-08T20:04:07.896Z,102345.94
2022-10-08T20:06:39.089Z,102344.72
2022-10-08T20:09:07.283Z,102345.09
2022-10-08T20:11:34.359Z,102341.03
2022-10-08T20:14:01.620Z,102345.78
2022-10-08T20:16:32.101Z,102351.97
2022-10-08T20:19:01.517Z,102353.09
2022-10-08T20:21:30.711Z,102353.75
2022-10-08T20:23:57.700Z,102359.16
2022-10-08T20:26:30.061Z,102372.22
2022-10-08T20:28:59.403Z,102367.63
2022-10-08T20:31:32.189Z,102364.81
2022-10-08T20:34:01.553Z,102364.47
2022-10-08T20:36:28.758Z,102369.53
2022-10-08T20:38:56.363Z,102374.16
2022-10-08T20:41:28.100Z,102363.94
2022-10-08T20:44:00.525Z,102366.31
2022-10-08T20:46:27.773Z,102368.22
2022-10-08T20:48:54.857Z,102370.38
2022-10-08T20:51:23.884Z,102370.97
2022-10-08T20:53:52.862Z,102368.16
2022-10-08T20:56:21.951Z,102370.38
2022-10-08T20:58:49.596Z,102379.88
2022-10-08T21:01:24.521Z,102371.50
2022-10-08T21:03:52.197Z,102381.03
2022-10-08T21:06:22.132Z,102377.44
2022-10-08T21:08:50.738Z,102377.44
2022-10-08T21:11:21.096Z,102376.75
2022-10-08T21:13:48.892Z,102381.09
2022-10-08T21:16:21.879Z,102381.09
2022-10-08T21:18:51.341Z,102385.19
2022-10-08T21:21:19.762Z,102384.53
2022-10-08T21:23:49.029Z,102386.88
2022-10-08T21:26:24.207Z,102386.50
2022-10-08T21:28:55.008Z,102389.88
2022-10-08T21:31:22.966Z,102392.53
2022-10-08T21:33:51.837Z,102395.56
2022-10-08T21:36:21.466Z,102401.19
2022-10-08T21:38:48.696Z,102399.13
2022-10-08T21:41:17.449Z,102403.31
2022-10-08T21:43:50.239Z,102403.91
2022-10-08T21:46:19.745Z,102408.72
2022-10-08T21:48:47.609Z,102414.59
2022-10-08T21:51:17.446Z,102414.47
2022-10-08T21:53:47.122Z,102413.84
2022-10-08T21:56:16.771Z,102414.44
2022-10-08T21:58:46.242Z,102417.06
2022-10-08T22:01:27.859Z,102412.53
2022-10-08T22:03:55.012Z,102419.44
2022-10-08T22:06:22.509Z,102424.94
2022-10-08T22:08:50.267Z,102412.69
2022-10-08T22:11:17.729Z,102415.25
2022-10-08T22:13:44.735Z,102410.63
2022-10-08T22:16:13.395Z,102412.16
2022-10-08T22:18:40.808Z,102415.97
2022-10-08T22:21:11.540Z,102409.34
2022-10-08T22:23:38.881Z,102416.00
2022-10-08T22:26:09.542Z,102410.41
2022-10-08T22:28:37.571Z,102420.63
2022-10-08T22:31:06.621Z,102422.06
2022-10-08T22:33:34.230Z,102410.78
2022-10-08T22:36:06.594Z,102421.34
2022-10-08T22:38:36.146Z,102413.84
2022-10-08T22:41:08.780Z,102412.66
2022-10-08T22:43:36.823Z,102416.75
2022-10-08T22:46:05.681Z,102413.44
2022-10-08T22:48:33.306Z,102417.34
2022-10-08T22:51:05.524Z,102415.53
2022-10-08T22:53:32.991Z,102409.50
2022-10-08T22:55:59.943Z,102414.16
2022-10-08T22:58:26.719Z,102418.47
2022-10-08T23:01:08.623Z,102412.69
2022-10-08T23:03:36.600Z,102406.00
2022-10-08T23:06:10.372Z,102412.94
2022-10-08T23:08:37.152Z,102414.78
2022-10-08T23:11:04.814Z,102407.78
2022-10-08T23:13:32.495Z,102412.44
2022-10-08T23:16:05.469Z,102409.13
2022-10-08T23:18:36.843Z,102409.63
2022-10-08T23:21:06.269Z,102416.06
2022-10-08T23:23:33.718Z,102415.44
2022-10-08T23:26:03.660Z,102422.03
2022-10-08T23:28:32.708Z,102415.31
2022-10-08T23:31:17.630Z,102420.06
2022-10-08T23:33:47.172Z,102417.38
2022-10-08T23:36:23.250Z,102412.72
2022-10-08T23:38:50.710Z,102421.50
2022-10-08T23:41:18.059Z,102422.16
2022-10-08T23:43:47.056Z,102417.63
2022-10-08T23:46:16.337Z,102421.38
2022-10-08T23:48:43.619Z,102410.00
2022-10-08T23:51:11.758Z,102422.78
2022-10-08T23:53:39.621Z,102419.06
2022-10-08T23:56:07.567Z,102416.59
2022-10-08T23:58:34.388Z,102420.72
